首页
METAR-TAF:

METAR-TAF

机场 :

Cranfield, 英格兰

纬度: 52-04N, 经度: 000-37W, 海拔: 111米

当前天气观测

该预报发布于10小时和55分钟前的11:20 UTC
风速19节,风向东北,有时为30节阵风
温度 6°C
湿度 42%
气压 1039 hPa
能见度10公里或以上
1500米以下无云,无积雨云

METAR: EGTC 291120Z 04019G30KT 9999 CAVOK 06/M06 Q1039

时间: 23:15 (22:15 UTC)

预报

该预报发布于11小时和18分钟前的10:57 UTC
预报有效从29日的 12点(UTC)到 29日的 16点(UTC)
风速20节,风向北转东北,有时为30节阵风
能见度10公里或以上
散云层高于3000英尺
短暂存在
从 29日的 12点(UTC)到 29日的 15点(UTC)
能見度: 6000
阵雨

TAF: EGTC 291057Z 2912/2916 03020G30KT 9999 SCT030 TEMPO 2912/2915 6000 SHRA

超过4000个机场的气象观测和天气预报(METAR&TAF报告)。

可查询的气象台以黄色和红色小点在地图上表示。

将鼠标移到小点上方,可查看气象台名称。

然后点击查看天气观测和预报。

如需切换地图:点击带黑十字的绿色按钮放大地图;点击带横线的绿色按钮缩小地图;或者点击绿色箭头查看邻近地区的地图。


METAR-TAF: